Time;durP1;ratioP1;P1;durP2;ratioP2;P2;SDS_P1;SDS_P2;PMS_P1;PMS_P2;Temp;Humidity;BMP_temperature;BMP_pressure;BME280_temperature;BME280_humidity;BME280_pressure;Samples;Min_cycle;Max_cycle;Signal;HPM_P1;HPM_P2
2021/01/11 00:02:14;;;;;;;17.35;7.38;;;4.40;99.90;;;;;;5046478;28;20086;-62
2021/01/11 00:04:40;;;;;;;17.55;6.60;;;4.50;99.90;;;;;;5044821;28;20163;-61
2021/01/11 00:07:09;;;;;;;14.48;6.88;;;4.40;99.90;;;;;;5044001;28;20033;-59
2021/01/11 00:09:34;;;;;;;14.55;7.05;;;4.40;99.90;;;;;;5047606;28;20453;-59
2021/01/11 00:12:00;;;;;;;14.10;7.03;;;4.30;99.90;;;;;;5045620;28;20040;-59
2021/01/11 00:14:25;;;;;;;15.35;7.68;;;4.40;99.90;;;;;;5045831;28;20048;-61
2021/01/11 00:16:51;;;;;;;17.52;7.43;;;4.40;99.90;;;;;;5046621;28;20056;-62
2021/01/11 00:19:17;;;;;;;14.68;6.88;;;4.40;99.90;;;;;;5042360;28;20114;-65
2021/01/11 00:21:46;;;;;;;16.60;7.88;;;4.40;99.90;;;;;;5041993;28;20481;-59
2021/01/11 00:24:11;;;;;;;17.73;8.15;;;4.40;99.90;;;;;;5044303;28;20040;-60
2021/01/11 00:26:37;;;;;;;14.05;7.22;;;4.40;99.90;;;;;;5047092;28;20040;-60
2021/01/11 00:29:02;;;;;;;15.55;7.78;;;4.40;99.90;;;;;;5043180;28;20037;-60
2021/01/11 00:31:28;;;;;;;15.30;7.57;;;4.50;99.90;;;;;;5042279;28;20048;-61
2021/01/11 00:33:53;;;;;;;18.20;7.47;;;4.40;99.90;;;;;;5044187;28;20063;-58
2021/01/11 00:36:19;;;;;;;15.32;7.25;;;4.40;99.90;;;;;;5043598;28;20083;-60
2021/01/11 00:38:45;;;;;;;15.10;7.40;;;4.50;99.90;;;;;;5047675;28;20096;-62
2021/01/11 00:41:21;;;;;;;14.45;6.82;;;4.50;99.90;;;;;;5042183;28;20136;-60
2021/01/11 00:43:48;;;;;;;15.20;7.95;;;4.50;99.90;;;;;;5045183;28;20068;-60
2021/01/11 00:46:24;;;;;;;22.17;9.10;;;4.40;99.90;;;;;;5046818;28;20036;-59
2021/01/11 00:48:50;;;;;;;18.10;8.35;;;4.40;99.90;;;;;;5049336;28;20033;-61
2021/01/11 00:51:16;;;;;;;20.95;9.60;;;4.40;99.90;;;;;;5039553;28;20499;-59
2021/01/11 00:53:44;;;;;;;18.27;8.60;;;4.40;99.90;;;;;;5045337;28;20033;-58
2021/01/11 00:56:11;;;;;;;17.95;8.57;;;4.40;99.90;;;;;;5044717;28;20025;-59
2021/01/11 00:58:37;;;;;;;19.58;8.80;;;4.40;99.90;;;;;;5038075;28;20034;-61
2021/01/11 01:01:02;;;;;;;18.92;9.07;;;4.40;99.90;;;;;;5044058;28;20031;-58
2021/01/11 01:03:28;;;;;;;19.83;9.52;;;4.40;99.90;;;;;;5039676;28;20041;-59
2021/01/11 01:05:53;;;;;;;18.55;9.13;;;4.40;99.90;;;;;;5039302;28;20545;-59
2021/01/11 01:08:19;;;;;;;20.40;9.10;;;4.40;99.90;;;;;;5038530;28;20029;-58
2021/01/11 01:10:44;;;;;;;21.42;9.48;;;4.30;99.90;;;;;;5041421;28;20108;-60
2021/01/11 01:13:10;;;;;;;19.27;7.97;;;4.40;99.90;;;;;;5038524;28;20058;-59
2021/01/11 01:15:35;;;;;;;21.60;10.25;;;4.30;99.90;;;;;;5039104;28;20071;-60
2021/01/11 01:18:01;;;;;;;22.70;9.07;;;4.30;99.90;;;;;;5039612;28;20033;-59
2021/01/11 01:20:26;;;;;;;20.63;10.35;;;4.40;99.90;;;;;;5038049;28;20429;-60
2021/01/11 01:22:52;;;;;;;18.70;8.75;;;4.30;99.90;;;;;;5040294;28;20037;-61
2021/01/11 01:25:17;;;;;;;18.33;8.95;;;4.30;99.90;;;;;;5037997;28;20079;-59
2021/01/11 01:27:43;;;;;;;21.70;10.68;;;4.30;99.90;;;;;;5040873;28;20037;-59
2021/01/11 01:30:10;;;;;;;27.35;11.38;;;4.30;99.90;;;;;;5038130;28;20402;-58
2021/01/11 01:32:36;;;;;;;21.73;10.32;;;4.30;99.90;;;;;;5039565;28;20552;-59
2021/01/11 01:35:02;;;;;;;21.02;10.23;;;4.30;99.90;;;;;;5039028;28;20029;-59
2021/01/11 01:37:28;;;;;;;21.75;9.60;;;4.30;99.90;;;;;;5039097;28;20122;-60
2021/01/11 01:39:53;;;;;;;21.42;10.07;;;4.30;99.90;;;;;;5038189;28;20072;-60
2021/01/11 01:42:19;;;;;;;23.65;10.40;;;4.30;99.90;;;;;;5037949;28;20033;-60
2021/01/11 01:44:44;;;;;;;23.58;10.55;;;4.30;99.90;;;;;;5040170;28;20103;-59
2021/01/11 01:47:10;;;;;;;23.25;10.95;;;4.40;99.90;;;;;;5041445;28;20045;-58
2021/01/11 01:49:36;;;;;;;20.85;9.38;;;4.30;99.90;;;;;;5040053;28;20079;-60
2021/01/11 01:52:05;;;;;;;20.90;9.68;;;4.30;99.90;;;;;;5038251;28;20439;-62
2021/01/11 01:54:31;;;;;;;22.13;10.05;;;4.30;99.90;;;;;;5039536;28;20120;-59
2021/01/11 01:56:56;;;;;;;23.98;10.50;;;4.30;99.90;;;;;;5040126;28;20116;-59
2021/01/11 01:59:24;;;;;;;27.38;11.38;;;4.30;99.90;;;;;;5039275;28;20040;-60
2021/01/11 02:01:53;;;;;;;21.75;10.25;;;4.30;99.90;;;;;;5039666;28;20382;-58
2021/01/11 02:04:19;;;;;;;24.48;11.65;;;4.30;99.90;;;;;;5037924;28;20452;-60
2021/01/11 02:06:48;;;;;;;27.60;12.30;;;4.30;99.90;;;;;;5039894;28;20611;-62
2021/01/11 02:09:24;;;;;;;22.02;10.73;;;4.30;99.90;;;;;;5037214;28;20155;-59
2021/01/11 02:12:01;;;;;;;23.17;10.85;;;4.30;99.90;;;;;;5037474;28;20029;-61
2021/01/11 02:14:59;;;;;;;26.05;12.27;;;4.30;99.90;;;;;;5038799;28;20044;-59
2021/01/11 02:17:46;;;;;;;27.77;12.57;;;4.30;99.90;;;;;;5040776;28;20043;-61
2021/01/11 02:20:42;;;;;;;30.77;13.48;;;4.30;99.90;;;;;;5040506;28;20036;-61
2021/01/11 02:23:32;;;;;;;25.33;11.40;;;4.30;99.90;;;;;;5040322;28;20037;-59
2021/01/11 02:26:25;;;;;;;27.60;12.60;;;4.20;99.90;;;;;;5038993;28;20036;-60
2021/01/11 02:29:04;;;;;;;24.38;11.40;;;4.20;99.90;;;;;;5041993;28;20029;-58
2021/01/11 02:31:31;;;;;;;29.15;13.00;;;4.20;99.90;;;;;;5037357;28;20040;-60
2021/01/11 02:34:00;;;;;;;26.05;13.02;;;4.20;99.90;;;;;;5038857;28;20491;-59
2021/01/11 02:36:27;;;;;;;28.13;12.82;;;4.20;99.90;;;;;;5038249;28;20029;-61
2021/01/11 02:38:54;;;;;;;29.00;12.68;;;4.30;99.90;;;;;;5037002;28;20037;-58
2021/01/11 02:41:20;;;;;;;27.40;12.57;;;4.20;99.90;;;;;;5037419;28;20064;-61
2021/01/11 02:43:45;;;;;;;26.35;12.55;;;4.20;99.90;;;;;;5037012;28;20116;-58
2021/01/11 02:46:11;;;;;;;26.00;12.93;;;4.20;99.90;;;;;;5038869;28;20033;-59
2021/01/11 02:48:54;;;;;;;25.65;12.13;;;4.30;99.90;;;;;;5040703;28;20026;-59
2021/01/11 02:51:22;;;;;;;26.52;13.05;;;4.20;99.90;;;;;;5041116;28;20408;-58
2021/01/11 02:54:01;;;;;;;26.73;12.48;;;4.10;99.90;;;;;;5036994;28;20026;-59
2021/01/11 02:56:51;;;;;;;28.45;13.32;;;4.20;99.90;;;;;;5037785;28;20120;-61
2021/01/11 02:59:27;;;;;;;25.67;12.48;;;4.20;99.90;;;;;;5025703;28;20120;-58
2021/01/11 03:02:03;;;;;;;29.10;12.18;;;4.20;99.90;;;;;;5038547;28;20029;-59
2021/01/11 03:04:30;;;;;;;30.70;14.13;;;4.20;99.90;;;;;;5038753;28;20759;-62
2021/01/11 03:06:59;;;;;;;28.92;12.45;;;4.10;99.90;;;;;;5037805;28;20052;-60
2021/01/11 03:09:25;;;;;;;28.45;12.68;;;4.20;99.90;;;;;;5038128;28;20033;-60
2021/01/11 03:11:51;;;;;;;27.95;11.65;;;4.10;99.90;;;;;;5038545;28;20132;-62
2021/01/11 03:14:16;;;;;;;25.85;12.65;;;4.10;99.90;;;;;;5036979;28;20192;-60
2021/01/11 03:16:42;;;;;;;30.60;12.77;;;4.20;99.90;;;;;;5039276;28;20528;-62
2021/01/11 03:19:07;;;;;;;35.97;15.07;;;4.10;99.90;;;;;;5034802;28;20090;-59
2021/01/11 03:21:34;;;;;;;30.23;14.20;;;4.20;99.90;;;;;;5039301;28;20033;-58
2021/01/11 03:23:59;;;;;;;30.42;13.27;;;4.10;99.90;;;;;;5036853;28;20045;-60
2021/01/11 03:26:25;;;;;;;28.17;13.77;;;4.10;99.90;;;;;;5038095;28;20041;-60
2021/01/11 03:28:51;;;;;;;29.40;14.10;;;4.20;99.90;;;;;;5038106;28;20025;-58
2021/01/11 03:31:17;;;;;;;36.65;14.60;;;4.10;99.90;;;;;;5036568;28;20029;-59
2021/01/11 03:33:43;;;;;;;32.95;14.65;;;4.10;99.90;;;;;;5041916;28;20682;-60
2021/01/11 03:36:09;;;;;;;34.10;14.27;;;4.10;99.90;;;;;;5039875;28;20439;-59
2021/01/11 03:38:34;;;;;;;35.10;15.27;;;4.10;99.90;;;;;;5045639;28;20039;-59
2021/01/11 03:41:03;;;;;;;30.58;13.07;;;4.10;99.90;;;;;;5040402;28;20029;-59
2021/01/11 03:43:32;;;;;;;34.60;14.32;;;4.10;99.90;;;;;;5042080;28;20443;-59
2021/01/11 03:45:57;;;;;;;34.40;15.45;;;4.10;99.90;;;;;;5040218;28;20043;-60
2021/01/11 03:48:23;;;;;;;35.83;15.38;;;4.10;99.90;;;;;;5041320;28;20406;-60
2021/01/11 03:50:50;;;;;;;34.17;14.23;;;4.10;99.90;;;;;;5041439;28;20508;-58
2021/01/11 03:53:15;;;;;;;35.60;15.55;;;4.10;99.90;;;;;;5040338;28;20175;-60
2021/01/11 03:55:41;;;;;;;44.35;16.00;;;4.10;99.90;;;;;;5040934;28;20055;-61
2021/01/11 03:58:08;;;;;;;36.03;14.88;;;4.10;99.90;;;;;;5039559;28;20021;-59
2021/01/11 04:00:35;;;;;;;38.53;15.90;;;4.10;99.90;;;;;;5038767;28;20052;-59
2021/01/11 04:03:02;;;;;;;37.47;15.75;;;4.10;99.90;;;;;;5042366;28;20426;-59
2021/01/11 04:05:28;;;;;;;42.08;16.50;;;4.10;99.90;;;;;;5038098;28;20059;-60
2021/01/11 04:07:53;;;;;;;36.28;15.15;;;4.20;99.90;;;;;;5041285;28;20038;-59
2021/01/11 04:10:19;;;;;;;37.17;16.02;;;4.20;99.90;;;;;;5041203;28;20460;-59
2021/01/11 04:12:44;;;;;;;45.70;16.65;;;4.20;99.90;;;;;;5039648;28;20034;-61
2021/01/11 04:15:10;;;;;;;46.17;17.42;;;4.20;99.90;;;;;;5042105;28;20509;-59
2021/01/11 04:17:36;;;;;;;41.33;16.27;;;4.20;99.90;;;;;;5038734;28;20493;-59
2021/01/11 04:20:03;;;;;;;43.90;17.15;;;4.20;99.90;;;;;;5042526;28;20432;-59
2021/01/11 04:22:29;;;;;;;46.08;19.13;;;4.30;99.90;;;;;;5038943;28;20044;-59
2021/01/11 04:24:54;;;;;;;42.92;16.92;;;4.20;99.90;;;;;;5041445;28;20030;-60
2021/01/11 04:27:20;;;;;;;44.75;17.15;;;4.20;99.90;;;;;;5040457;28;20052;-61
2021/01/11 04:29:46;;;;;;;46.50;17.15;;;4.20;99.90;;;;;;5039753;28;20025;-60
2021/01/11 04:32:11;;;;;;;43.33;17.92;;;4.30;99.90;;;;;;5041179;28;20039;-59
2021/01/11 04:34:37;;;;;;;47.78;18.40;;;4.20;99.90;;;;;;5038781;28;20041;-58
2021/01/11 04:37:03;;;;;;;48.65;17.67;;;4.30;99.90;;;;;;5044482;28;20486;-59
2021/01/11 04:39:28;;;;;;;45.47;17.70;;;4.20;99.90;;;;;;5042996;28;20410;-60
2021/01/11 04:41:55;;;;;;;42.90;16.10;;;4.30;99.90;;;;;;5042601;28;20171;-62
2021/01/11 04:44:20;;;;;;;46.47;17.27;;;4.30;99.90;;;;;;5039470;28;20037;-60
2021/01/11 04:46:48;;;;;;;51.63;18.17;;;4.30;99.90;;;;;;5039672;28;20041;-60
2021/01/11 04:49:14;;;;;;;44.60;16.58;;;4.30;99.90;;;;;;5040500;28;20060;-61
2021/01/11 04:51:40;;;;;;;43.50;15.93;;;4.30;99.90;;;;;;5042250;28;20454;-62
2021/01/11 04:54:08;;;;;;;45.03;17.00;;;4.40;99.90;;;;;;5038362;28;20112;-59
2021/01/11 04:56:39;;;;;;;42.55;16.75;;;4.40;99.90;;;;;;5040006;28;20040;-59
2021/01/11 04:59:07;;;;;;;46.15;16.48;;;4.30;99.90;;;;;;5045943;28;20052;-60
2021/01/11 05:01:34;;;;;;;49.33;16.90;;;4.40;99.90;;;;;;5037904;28;20033;-60
2021/01/11 05:04:00;;;;;;;40.97;16.83;;;4.30;99.90;;;;;;5038522;28;20041;-61
2021/01/11 05:06:27;;;;;;;39.42;16.13;;;4.30;99.90;;;;;;5040691;28;20033;-58
2021/01/11 05:09:01;;;;;;;41.78;15.35;;;4.50;99.90;;;;;;5037484;28;20381;-59
2021/01/11 05:11:27;;;;;;;41.22;15.23;;;4.50;99.90;;;;;;5041075;28;20025;-58
2021/01/11 05:13:52;;;;;;;39.92;16.40;;;4.40;99.90;;;;;;5036942;28;20047;-59
2021/01/11 05:16:22;;;;;;;37.72;14.30;;;4.50;99.90;;;;;;5039713;28;20044;-59
2021/01/11 05:18:48;;;;;;;33.33;13.98;;;4.40;99.90;;;;;;5038667;28;20021;-60
2021/01/11 05:21:44;;;;;;;35.03;13.73;;;4.40;99.90;;;;;;5039637;28;20056;-61
2021/01/11 05:24:33;;;;;;;38.75;14.65;;;4.40;99.90;;;;;;5043750;28;20079;-59
2021/01/11 05:27:02;;;;;;;32.33;13.73;;;4.40;99.90;;;;;;5041142;28;20037;-60
2021/01/11 05:29:28;;;;;;;32.20;13.15;;;4.40;99.90;;;;;;5045174;28;20428;-59
2021/01/11 05:31:58;;;;;;;31.15;13.70;;;4.50;99.90;;;;;;5040368;28;20033;-61
2021/01/11 05:34:43;;;;;;;32.00;13.52;;;4.50;99.90;;;;;;5048581;28;20108;-60
2021/01/11 05:37:08;;;;;;;26.38;11.27;;;4.60;99.90;;;;;;5048393;28;20021;-60
2021/01/11 05:39:34;;;;;;;27.73;11.70;;;4.60;99.90;;;;;;5048722;28;20028;-58
2021/01/11 05:42:00;;;;;;;27.58;12.15;;;4.60;99.90;;;;;;5040903;28;20029;-59
2021/01/11 05:44:25;;;;;;;34.78;13.07;;;4.60;99.90;;;;;;5062135;22;20052;-65
2021/01/11 05:46:51;;;;;;;38.15;13.07;;;4.60;99.90;;;;;;5043939;28;20045;-65
2021/01/11 05:49:17;;;;;;;36.30;15.35;;;4.60;99.90;;;;;;5044895;28;20033;-66
2021/01/11 05:51:42;;;;;;;33.15;14.25;;;4.50;99.90;;;;;;5038757;28;20116;-65
2021/01/11 05:54:24;;;;;;;28.92;12.13;;;4.50;99.90;;;;;;5035226;28;20084;-65
2021/01/11 05:56:54;;;;;;;32.85;13.25;;;4.50;99.90;;;;;;5015990;28;20899;-65
2021/01/11 05:59:20;;;;;;;33.17;14.57;;;4.50;99.90;;;;;;5033423;28;20068;-66
2021/01/11 06:01:46;;;;;;;32.17;14.27;;;4.50;99.90;;;;;;5014518;28;20045;-66
2021/01/11 06:04:12;;;;;;;30.15;13.80;;;4.60;99.90;;;;;;5021330;28;20114;-64
2021/01/11 06:06:39;;;;;;;30.70;13.50;;;4.60;99.90;;;;;;5024359;28;20469;-64
2021/01/11 06:09:07;;;;;;;31.52;14.93;;;4.60;99.90;;;;;;5020236;28;20045;-65
2021/01/11 06:11:37;;;;;;;26.95;14.40;;;4.60;99.90;;;;;;5023243;28;20124;-66
2021/01/11 06:14:07;;;;;;;28.70;12.52;;;4.50;99.90;;;;;;5022996;28;20216;-65
2021/01/11 06:16:34;;;;;;;34.45;14.13;;;4.50;99.90;;;;;;5018997;28;20068;-64
2021/01/11 06:19:00;;;;;;;28.85;13.25;;;4.50;99.90;;;;;;5023405;28;20037;-65
2021/01/11 06:21:26;;;;;;;27.38;12.60;;;4.50;99.90;;;;;;5023203;28;20451;-65
2021/01/11 06:24:13;;;;;;;30.48;12.82;;;4.50;99.90;;;;;;5022491;28;20030;-65
2021/01/11 06:26:38;;;;;;;28.77;13.10;;;4.60;99.90;;;;;;5019710;28;20124;-66
2021/01/11 06:29:31;;;;;;;26.98;11.20;;;4.50;99.90;;;;;;5038271;28;20551;-65
2021/01/11 06:32:16;;;;;;;25.38;11.93;;;4.50;99.90;;;;;;5046381;28;20571;-66
2021/01/11 06:34:42;;;;;;;29.40;10.82;;;4.50;99.90;;;;;;5020743;28;20383;-65
2021/01/11 06:37:22;;;;;;;25.63;10.27;;;4.50;99.90;;;;;;5023311;28;20113;-65
2021/01/11 06:39:48;;;;;;;18.83;9.53;;;4.50;99.90;;;;;;5021887;28;20037;-65
2021/01/11 06:42:15;;;;;;;20.13;9.48;;;4.50;99.90;;;;;;5023470;28;20049;-65
2021/01/11 06:44:47;;;;;;;20.15;9.20;;;4.50;99.90;;;;;;5026610;28;20041;-66
2021/01/11 06:47:29;;;;;;;22.15;10.48;;;4.50;99.90;;;;;;5025301;28;20529;-64
2021/01/11 06:50:08;;;;;;;23.20;9.93;;;4.50;99.90;;;;;;5026542;28;20052;-66
2021/01/11 06:52:36;;;;;;;27.83;10.55;;;4.60;99.90;;;;;;5025717;28;20489;-65
2021/01/11 06:55:17;;;;;;;21.92;9.25;;;4.60;99.90;;;;;;5015974;28;20471;-65
2021/01/11 06:57:47;;;;;;;19.23;9.45;;;4.60;99.90;;;;;;5020003;28;20041;-65
2021/01/11 07:00:17;;;;;;;;;;;4.60;99.90;;;;;;5033740;28;20042;-65
2021/01/11 07:02:43;;;;;;;22.60;9.43;;;4.60;99.90;;;;;;5024629;28;19925;-65
2021/01/11 07:05:38;;;;;;;21.85;9.30;;;4.60;99.90;;;;;;5022392;28;20033;-65
2021/01/11 07:08:09;;;;;;;18.65;9.23;;;4.60;99.90;;;;;;5017147;28;20046;-65
2021/01/11 07:10:36;;;;;;;19.25;10.50;;;4.60;99.90;;;;;;5022228;28;20038;-65
2021/01/11 07:13:17;;;;;;;17.77;9.02;;;4.60;99.90;;;;;;5025874;28;20163;-65
2021/01/11 07:15:52;;;;;;;23.77;9.18;;;4.60;99.90;;;;;;5024774;28;20029;-65
2021/01/11 07:18:41;;;;;;;18.10;8.75;;;4.60;99.90;;;;;;5023419;28;20041;-63
2021/01/11 07:21:14;;;;;;;18.50;8.50;;;4.60;99.90;;;;;;5014713;28;20034;-66
2021/01/11 07:23:40;;;;;;;19.52;9.05;;;4.50;99.90;;;;;;5024836;28;20041;-65
2021/01/11 07:26:17;;;;;;;24.65;10.93;;;4.50;99.90;;;;;;5024495;28;20179;-65
2021/01/11 07:28:53;;;;;;;19.17;8.27;;;4.50;99.90;;;;;;5028374;28;20025;-66
2021/01/11 07:31:39;;;;;;;17.95;9.00;;;4.50;99.90;;;;;;5029044;28;20033;-66
2021/01/11 07:34:12;;;;;;;18.05;8.77;;;4.50;99.90;;;;;;5025557;28;20029;-64
2021/01/11 07:36:48;;;;;;;21.67;9.30;;;4.50;99.90;;;;;;5024225;28;20037;-66
2021/01/11 07:39:23;;;;;;;17.40;8.52;;;4.60;99.90;;;;;;5023645;28;20045;-65
2021/01/11 07:41:54;;;;;;;23.17;9.20;;;4.60;99.90;;;;;;5024100;28;20060;-65
2021/01/11 07:44:24;;;;;;;14.05;7.63;;;4.60;99.90;;;;;;5021535;28;20516;-65
2021/01/11 07:47:10;;;;;;;16.33;9.00;;;4.60;99.90;;;;;;5018941;28;20304;-65
2021/01/11 07:49:41;;;;;;;17.73;9.07;;;4.50;99.90;;;;;;5023071;28;20025;-65
2021/01/11 07:52:10;;;;;;;20.08;8.93;;;4.50;99.90;;;;;;5023758;28;20037;-66
2021/01/11 07:54:36;;;;;;;21.40;9.20;;;4.50;99.90;;;;;;5023072;28;20038;-65
2021/01/11 07:57:03;;;;;;;22.80;9.77;;;4.60;99.90;;;;;;5024064;28;20508;-65
2021/01/11 07:59:28;;;;;;;20.88;8.90;;;4.60;99.90;;;;;;5023894;28;20034;-65
2021/01/11 08:01:56;;;;;;;22.05;10.63;;;4.60;99.90;;;;;;5039525;28;20037;-65
2021/01/11 08:04:21;;;;;;;19.60;9.23;;;4.60;99.90;;;;;;5021078;28;20205;-66
2021/01/11 08:06:49;;;;;;;21.77;10.23;;;4.60;99.90;;;;;;5023640;28;20553;-66
2021/01/11 08:09:16;;;;;;;22.25;9.63;;;4.60;99.90;;;;;;5025320;28;20495;-71
2021/01/11 08:11:42;;;;;;;16.60;8.85;;;4.60;99.90;;;;;;5023599;28;20033;-66
2021/01/11 08:14:09;;;;;;;21.13;9.05;;;4.50;99.90;;;;;;5022748;28;20029;-65
2021/01/11 08:16:36;;;;;;;20.88;8.30;;;4.60;99.90;;;;;;5022435;28;20018;-65
2021/01/11 08:19:05;;;;;;;24.58;9.07;;;4.60;99.90;;;;;;5023525;28;20525;-64
2021/01/11 08:21:31;;;;;;;18.13;7.57;;;4.60;99.90;;;;;;5023214;28;20065;-63
2021/01/11 08:24:03;;;;;;;15.25;7.80;;;4.60;99.90;;;;;;5023479;28;20057;-66
2021/01/11 08:26:31;;;;;;;17.33;8.63;;;4.60;99.90;;;;;;5020757;28;20061;-64
2021/01/11 08:28:57;;;;;;;17.08;7.97;;;4.60;99.90;;;;;;5024353;28;20033;-63
2021/01/11 08:31:24;;;;;;;23.02;8.50;;;4.60;99.90;;;;;;5023885;28;20044;-64
2021/01/11 08:33:50;;;;;;;17.00;7.55;;;4.60;99.90;;;;;;5023327;28;20315;-65
2021/01/11 08:36:17;;;;;;;15.05;8.25;;;4.70;99.90;;;;;;5036404;28;20033;-64
2021/01/11 08:39:05;;;;;;;17.95;8.10;;;4.70;99.90;;;;;;5018569;28;20026;-64
2021/01/11 08:41:46;;;;;;;17.95;6.85;;;4.60;99.90;;;;;;5020513;28;20037;-65
2021/01/11 08:44:31;;;;;;;17.38;7.88;;;4.60;99.90;;;;;;5020471;28;20034;-65
2021/01/11 08:47:00;;;;;;;17.98;8.32;;;4.70;99.90;;;;;;5028862;28;20041;-63
2021/01/11 08:49:26;;;;;;;13.45;6.53;;;4.70;99.90;;;;;;5029047;28;20041;-64
2021/01/11 08:51:52;;;;;;;17.55;7.68;;;4.70;99.90;;;;;;5028691;28;20057;-63
2021/01/11 08:54:31;;;;;;;26.83;7.57;;;4.70;99.90;;;;;;5020685;28;20064;-64
2021/01/11 08:56:58;;;;;;;14.77;6.40;;;4.70;99.90;;;;;;5020572;28;20122;-66
2021/01/11 08:59:25;;;;;;;18.45;5.88;;;4.70;99.90;;;;;;5023306;28;20056;-63
2021/01/11 09:01:51;;;;;;;12.00;6.43;;;4.70;99.90;;;;;;5021911;28;20042;-65
2021/01/11 09:04:34;;;;;;;11.80;6.07;;;4.70;99.90;;;;;;5018835;28;20041;-64
2021/01/11 09:07:05;;;;;;;13.88;6.70;;;4.70;99.90;;;;;;5044079;28;20524;-65
2021/01/11 09:09:32;;;;;;;10.27;5.13;;;4.80;99.90;;;;;;5021636;28;20402;-64
2021/01/11 09:12:02;;;;;;;13.00;6.15;;;4.80;99.90;;;;;;5021507;28;20033;-63
2021/01/11 09:14:28;;;;;;;13.27;6.38;;;4.80;99.90;;;;;;5020690;28;20041;-64
2021/01/11 09:17:12;;;;;;;16.10;5.90;;;4.80;99.90;;;;;;5017290;28;20061;-63
2021/01/11 09:19:37;;;;;;;12.10;5.40;;;4.80;99.90;;;;;;5018289;28;20128;-64
2021/01/11 09:22:16;;;;;;;13.20;6.57;;;4.90;99.90;;;;;;5019421;28;20229;-63
2021/01/11 09:24:43;;;;;;;13.95;6.22;;;4.90;99.90;;;;;;5022694;28;20033;-63
2021/01/11 09:27:09;;;;;;;13.35;5.50;;;4.90;99.90;;;;;;5022498;28;20115;-63
2021/01/11 09:29:35;;;;;;;10.90;5.28;;;5.00;99.90;;;;;;5019671;28;20037;-64
2021/01/11 09:32:01;;;;;;;11.90;5.63;;;5.00;99.90;;;;;;5020983;28;20038;-64
2021/01/11 09:34:27;;;;;;;12.02;5.55;;;5.00;99.90;;;;;;5020675;28;20041;-64
2021/01/11 09:36:52;;;;;;;10.80;5.32;;;5.00;99.90;;;;;;5021159;28;20436;-65
2021/01/11 09:39:18;;;;;;;10.80;4.82;;;5.00;99.90;;;;;;5023365;28;20025;-64
2021/01/11 09:41:48;;;;;;;8.73;4.50;;;5.00;99.90;;;;;;5035894;28;20029;-64
2021/01/11 09:44:14;;;;;;;13.00;4.43;;;5.10;99.90;;;;;;5018797;28;20057;-64
2021/01/11 09:46:46;;;;;;;9.27;4.60;;;5.10;99.90;;;;;;5022039;28;20061;-64
2021/01/11 09:49:11;;;;;;;9.10;4.90;;;5.10;99.90;;;;;;5020412;28;20045;-64
2021/01/11 09:51:37;;;;;;;11.77;4.72;;;5.10;99.90;;;;;;5022347;28;20033;-64
2021/01/11 09:54:03;;;;;;;9.85;4.55;;;5.10;99.90;;;;;;5018923;28;20022;-63
2021/01/11 09:56:29;;;;;;;9.05;4.75;;;5.20;99.90;;;;;;5020971;28;20034;-63
2021/01/11 09:58:54;;;;;;;7.97;4.20;;;5.20;99.90;;;;;;5022684;28;20037;-64
2021/01/11 10:01:21;;;;;;;10.52;5.13;;;5.20;99.90;;;;;;5023957;28;20061;-63
2021/01/11 10:03:48;;;;;;;8.82;4.10;;;5.20;99.90;;;;;;5019279;28;20030;-64
2021/01/11 10:06:14;;;;;;;10.93;4.25;;;5.20;99.90;;;;;;5031254;28;20228;-65
2021/01/11 10:08:40;;;;;;;7.68;3.88;;;5.20;99.90;;;;;;5022142;28;20112;-64
2021/01/11 10:11:15;;;;;;;8.02;4.15;;;5.20;99.90;;;;;;5022012;28;20037;-67
2021/01/11 10:13:41;;;;;;;9.43;4.55;;;5.20;99.90;;;;;;5021512;28;20037;-66
2021/01/11 10:16:07;;;;;;;7.82;3.97;;;5.20;99.90;;;;;;5025133;28;20104;-67
2021/01/11 10:18:32;;;;;;;8.18;4.18;;;5.20;99.90;;;;;;5022270;28;20112;-65
2021/01/11 10:20:58;;;;;;;8.95;4.40;;;5.20;99.90;;;;;;5035467;28;20053;-63
2021/01/11 10:23:23;;;;;;;9.52;4.60;;;5.30;99.90;;;;;;5020754;28;20033;-63
2021/01/11 10:25:49;;;;;;;8.10;4.57;;;5.30;99.90;;;;;;5019886;28;20034;-66
2021/01/11 10:28:15;;;;;;;10.05;4.28;;;5.20;99.90;;;;;;5018631;28;20065;-63
2021/01/11 10:30:41;;;;;;;9.65;4.07;;;5.20;99.90;;;;;;5017940;28;20040;-65
2021/01/11 10:33:06;;;;;;;8.43;4.80;;;5.20;99.90;;;;;;5020677;28;20041;-64
2021/01/11 10:35:33;;;;;;;8.07;4.22;;;5.20;99.90;;;;;;5017963;28;20037;-64
2021/01/11 10:37:59;;;;;;;10.07;4.38;;;5.20;99.90;;;;;;5019160;28;20045;-63
2021/01/11 10:40:24;;;;;;;9.18;4.68;;;5.20;99.90;;;;;;5016902;28;20026;-66
2021/01/11 10:42:50;;;;;;;7.90;4.38;;;5.20;99.90;;;;;;5020809;28;20123;-64
2021/01/11 10:45:16;;;;;;;7.85;4.07;;;5.20;99.90;;;;;;5020766;28;20043;-65
2021/01/11 10:47:41;;;;;;;8.43;4.25;;;5.20;99.90;;;;;;5019536;28;20116;-64
2021/01/11 10:50:08;;;;;;;9.77;5.47;;;5.20;99.90;;;;;;5017483;28;20044;-65
2021/01/11 10:52:33;;;;;;;7.72;3.95;;;5.20;99.90;;;;;;5020540;28;20038;-64
2021/01/11 10:54:59;;;;;;;9.15;4.88;;;5.30;99.90;;;;;;5021597;28;20034;-67
2021/01/11 10:57:24;;;;;;;10.52;4.05;;;5.30;99.90;;;;;;5017728;28;20060;-66
2021/01/11 10:59:50;;;;;;;7.10;4.22;;;5.40;99.90;;;;;;5019344;28;20066;-64
2021/01/11 11:02:15;;;;;;;8.13;3.83;;;5.40;99.90;;;;;;5017429;28;20429;-64
2021/01/11 11:04:41;;;;;;;9.05;4.40;;;5.50;99.90;;;;;;5021426;28;20032;-63
2021/01/11 11:07:06;;;;;;;16.15;5.82;;;5.40;99.90;;;;;;5021765;28;20104;-64
2021/01/11 11:09:32;;;;;;;7.88;4.22;;;5.50;99.90;;;;;;5016199;28;21715;-64
2021/01/11 11:11:58;;;;;;;11.30;5.20;;;5.50;99.90;;;;;;5026370;28;20160;-65
2021/01/11 11:14:23;;;;;;;8.57;4.07;;;5.60;99.90;;;;;;5029613;28;20037;-68
2021/01/11 11:16:49;;;;;;;7.97;3.90;;;5.60;99.90;;;;;;5027498;28;20510;-63
2021/01/11 11:19:15;;;;;;;7.93;3.90;;;5.60;99.90;;;;;;5018281;28;20389;-66
2021/01/11 11:21:41;;;;;;;14.15;4.90;;;5.60;99.90;;;;;;5019983;28;20120;-64
2021/01/11 11:24:06;;;;;;;8.35;3.70;;;5.60;99.90;;;;;;5024460;28;20536;-65
2021/01/11 11:26:32;;;;;;;9.48;3.50;;;5.70;99.90;;;;;;5019327;28;20044;-65
2021/01/11 11:28:57;;;;;;;6.57;3.65;;;5.70;99.90;;;;;;5024365;28;20039;-65
2021/01/11 11:31:23;;;;;;;7.20;3.63;;;5.70;99.90;;;;;;5018557;28;20041;-66
2021/01/11 11:33:48;;;;;;;9.82;3.67;;;5.70;99.90;;;;;;5024850;28;20120;-65
2021/01/11 11:36:17;;;;;;;8.93;3.50;;;5.80;99.90;;;;;;5025040;28;20041;-65
2021/01/11 11:38:43;;;;;;;9.93;4.40;;;5.70;99.90;;;;;;5027047;28;20079;-64
2021/01/11 11:41:08;;;;;;;11.27;4.18;;;5.70;99.90;;;;;;5026395;28;20038;-67
2021/01/11 11:43:34;;;;;;;10.02;4.05;;;5.70;99.90;;;;;;5043587;23;20045;-61
2021/01/11 11:45:59;;;;;;;7.03;3.55;;;5.60;99.90;;;;;;5043453;28;20033;-62
2021/01/11 11:48:25;;;;;;;8.70;3.65;;;5.70;99.90;;;;;;5042504;28;20041;-60
2021/01/11 11:50:50;;;;;;;8.60;4.05;;;5.70;99.90;;;;;;5046403;28;20408;-62
2021/01/11 11:53:18;;;;;;;6.75;3.55;;;5.70;99.90;;;;;;5045894;28;20033;-61
2021/01/11 11:55:43;;;;;;;9.55;4.15;;;5.70;99.90;;;;;;5047393;28;20516;-59
2021/01/11 11:58:09;;;;;;;9.85;4.78;;;5.70;99.90;;;;;;5049797;28;20033;-60
2021/01/11 12:00:34;;;;;;;6.40;3.60;;;5.70;99.90;;;;;;5047615;28;20507;-61
2021/01/11 12:03:00;;;;;;;7.93;3.67;;;5.70;99.90;;;;;;5049621;28;20489;-60
2021/01/11 12:05:25;;;;;;;12.20;4.53;;;5.70;99.90;;;;;;5049347;28;20029;-60
2021/01/11 12:07:53;;;;;;;10.80;4.50;;;5.80;99.90;;;;;;5048392;28;20041;-62
2021/01/11 12:10:19;;;;;;;8.05;3.53;;;5.80;99.90;;;;;;5045229;28;20037;-60
2021/01/11 12:12:47;;;;;;;7.55;4.35;;;5.80;99.90;;;;;;5029407;28;20033;-60
2021/01/11 12:15:14;;;;;;;8.68;4.72;;;5.80;99.90;;;;;;5043397;28;20059;-62
2021/01/11 12:17:41;;;;;;;11.23;4.35;;;5.90;99.90;;;;;;5053792;28;20082;-62
2021/01/11 12:20:09;;;;;;;13.23;4.97;;;5.90;99.90;;;;;;5035076;28;20559;-60
2021/01/11 12:22:36;;;;;;;8.68;4.70;;;5.90;99.90;;;;;;5055050;28;20037;-60
2021/01/11 12:25:03;;;;;;;9.20;4.72;;;5.80;99.90;;;;;;5054242;28;20055;-60
2021/01/11 12:27:30;;;;;;;10.55;5.65;;;5.80;99.90;;;;;;5036447;28;20086;-61
2021/01/11 12:29:56;;;;;;;12.27;4.97;;;5.80;99.90;;;;;;5041450;28;20516;-60
2021/01/11 12:32:21;;;;;;;13.05;5.65;;;5.70;99.90;;;;;;5025895;28;20071;-60
2021/01/11 12:34:47;;;;;;;10.27;4.97;;;5.80;99.90;;;;;;5043109;28;20052;-60
2021/01/11 12:37:14;;;;;;;9.88;5.15;;;5.70;99.90;;;;;;5041825;28;20029;-59
2021/01/11 12:39:41;;;;;;;8.18;4.47;;;5.80;99.90;;;;;;5039112;28;20025;-62
2021/01/11 12:42:07;;;;;;;12.23;6.00;;;5.80;99.90;;;;;;5042335;28;20059;-62
2021/01/11 12:44:33;;;;;;;9.45;5.10;;;5.70;99.90;;;;;;5047046;28;20102;-62
2021/01/11 12:47:00;;;;;;;8.27;5.10;;;5.80;99.90;;;;;;5046266;28;20544;-60
2021/01/11 12:49:26;;;;;;;16.30;5.70;;;5.80;99.90;;;;;;5039937;28;20037;-59
2021/01/11 12:51:53;;;;;;;9.43;4.60;;;5.70;99.90;;;;;;5040522;28;20502;-60
2021/01/11 12:54:19;;;;;;;9.90;4.60;;;5.70;99.90;;;;;;5038037;28;20041;-60